sensor_id;sensor_type;location;lat;lon;timestamp;temperature;humidity
72126;SHT31;59999;51.676;22.650;2022-09-09T00:01:34;11.73;84.74
72126;SHT31;59999;51.676;22.650;2022-09-09T00:04:15;11.67;85.31
72126;SHT31;59999;51.676;22.650;2022-09-09T00:09:46;11.60;86.10
72126;SHT31;59999;51.676;22.650;2022-09-09T00:15:13;11.54;87.13
72126;SHT31;59999;51.676;22.650;2022-09-09T00:17:43;11.49;87.35
72126;SHT31;59999;51.676;22.650;2022-09-09T00:20:16;11.49;87.40
72126;SHT31;59999;51.676;22.650;2022-09-09T00:22:59;11.52;87.69
72126;SHT31;59999;51.676;22.650;2022-09-09T00:25:31;11.52;88.40
72126;SHT31;59999;51.676;22.650;2022-09-09T00:27:59;11.50;88.34
72126;SHT31;59999;51.676;22.650;2022-09-09T00:30:29;11.49;88.53
72126;SHT31;59999;51.676;22.650;2022-09-09T00:33:11;11.52;88.49
72126;SHT31;59999;51.676;22.650;2022-09-09T00:35:40;11.53;88.54
72126;SHT31;59999;51.676;22.650;2022-09-09T00:40:52;11.50;88.88
72126;SHT31;59999;51.676;22.650;2022-09-09T00:43:26;11.54;88.55
72126;SHT31;59999;51.676;22.650;2022-09-09T00:52:02;11.63;88.66
72126;SHT31;59999;51.676;22.650;2022-09-09T00:59:48;11.57;89.10
72126;SHT31;59999;51.676;22.650;2022-09-09T01:04:50;11.63;89.18
72126;SHT31;59999;51.676;22.650;2022-09-09T01:07:18;11.63;89.49
72126;SHT31;59999;51.676;22.650;2022-09-09T01:10:30;11.62;89.21
72126;SHT31;59999;51.676;22.650;2022-09-09T01:12:42;11.54;89.71
72126;SHT31;59999;51.676;22.650;2022-09-09T01:15:29;11.49;90.07
72126;SHT31;59999;51.676;22.650;2022-09-09T01:18:10;11.50;90.20
72126;SHT31;59999;51.676;22.650;2022-09-09T01:23:30;11.53;90.24
72126;SHT31;59999;51.676;22.650;2022-09-09T01:26:16;11.60;90.06
72126;SHT31;59999;51.676;22.650;2022-09-09T01:28:46;11.54;90.29
72126;SHT31;59999;51.676;22.650;2022-09-09T01:31:17;11.52;90.25
72126;SHT31;59999;51.676;22.650;2022-09-09T01:33:44;11.52;90.62
72126;SHT31;59999;51.676;22.650;2022-09-09T01:36:21;11.53;90.44
72126;SHT31;59999;51.676;22.650;2022-09-09T01:38:49;11.52;90.44
72126;SHT31;59999;51.676;22.650;2022-09-09T01:41:15;11.56;90.28
72126;SHT31;59999;51.676;22.650;2022-09-09T01:43:41;11.50;90.41
72126;SHT31;59999;51.676;22.650;2022-09-09T01:46:07;11.50;90.60
72126;SHT31;59999;51.676;22.650;2022-09-09T01:48:33;11.52;90.72
72126;SHT31;59999;51.676;22.650;2022-09-09T01:50:59;11.46;90.94
72126;SHT31;59999;51.676;22.650;2022-09-09T01:53:25;11.46;91.14
72126;SHT31;59999;51.676;22.650;2022-09-09T01:56:07;11.44;91.33
72126;SHT31;59999;51.676;22.650;2022-09-09T01:58:47;11.47;91.33
72126;SHT31;59999;51.676;22.650;2022-09-09T02:03:54;11.53;91.05
72126;SHT31;59999;51.676;22.650;2022-09-09T02:06:36;11.50;91.29
72126;SHT31;59999;51.676;22.650;2022-09-09T02:09:05;11.59;91.03
72126;SHT31;59999;51.676;22.650;2022-09-09T02:11:32;11.50;91.10
72126;SHT31;59999;51.676;22.650;2022-09-09T02:14:39;11.52;91.50
72126;SHT31;59999;51.676;22.650;2022-09-09T02:17:11;11.50;91.63
72126;SHT31;59999;51.676;22.650;2022-09-09T02:19:46;11.52;91.63
72126;SHT31;59999;51.676;22.650;2022-09-09T02:22:17;11.62;91.26
72126;SHT31;59999;51.676;22.650;2022-09-09T02:24:44;11.57;91.40
72126;SHT31;59999;51.676;22.650;2022-09-09T02:27:12;11.56;91.59
72126;SHT31;59999;51.676;22.650;2022-09-09T02:29:41;11.50;91.83
72126;SHT31;59999;51.676;22.650;2022-09-09T02:32:13;11.49;92.09
72126;SHT31;59999;51.676;22.650;2022-09-09T02:34:43;11.47;92.14
72126;SHT31;59999;51.676;22.650;2022-09-09T02:37:11;11.49;92.15
72126;SHT31;59999;51.676;22.650;2022-09-09T02:39:38;11.44;92.15
72126;SHT31;59999;51.676;22.650;2022-09-09T02:42:05;11.49;92.28
72126;SHT31;59999;51.676;22.650;2022-09-09T02:44:31;11.42;92.22
72126;SHT31;59999;51.676;22.650;2022-09-09T02:47:29;11.44;92.16
72126;SHT31;59999;51.676;22.650;2022-09-09T02:55:39;11.35;92.74
72126;SHT31;59999;51.676;22.650;2022-09-09T02:58:08;11.36;92.88
72126;SHT31;59999;51.676;22.650;2022-09-09T03:00:37;11.35;93.04
72126;SHT31;59999;51.676;22.650;2022-09-09T03:03:06;11.37;92.93
72126;SHT31;59999;51.676;22.650;2022-09-09T03:05:32;11.35;93.09
72126;SHT31;59999;51.676;22.650;2022-09-09T03:07:58;11.32;93.20
72126;SHT31;59999;51.676;22.650;2022-09-09T03:10:24;11.32;93.25
72126;SHT31;59999;51.676;22.650;2022-09-09T03:12:50;11.33;93.29
72126;SHT31;59999;51.676;22.650;2022-09-09T03:15:16;11.36;93.23
72126;SHT31;59999;51.676;22.650;2022-09-09T03:17:42;11.39;93.24
72126;SHT31;59999;51.676;22.650;2022-09-09T03:20:08;11.39;93.14
72126;SHT31;59999;51.676;22.650;2022-09-09T03:22:35;11.40;93.07
72126;SHT31;59999;51.676;22.650;2022-09-09T03:25:01;11.42;93.10
72126;SHT31;59999;51.676;22.650;2022-09-09T03:27:29;11.44;93.16
72126;SHT31;59999;51.676;22.650;2022-09-09T03:29:55;11.44;93.07
72126;SHT31;59999;51.676;22.650;2022-09-09T03:32:22;11.46;93.17
72126;SHT31;59999;51.676;22.650;2022-09-09T03:34:48;11.46;93.15
72126;SHT31;59999;51.676;22.650;2022-09-09T03:37:16;11.47;93.09
72126;SHT31;59999;51.676;22.650;2022-09-09T03:39:43;11.50;93.09
72126;SHT31;59999;51.676;22.650;2022-09-09T03:42:12;11.53;92.93
72126;SHT31;59999;51.676;22.650;2022-09-09T03:44:40;11.52;93.03
72126;SHT31;59999;51.676;22.650;2022-09-09T03:47:07;11.56;93.01
72126;SHT31;59999;51.676;22.650;2022-09-09T03:49:33;11.56;92.88
72126;SHT31;59999;51.676;22.650;2022-09-09T03:51:59;11.57;92.74
72126;SHT31;59999;51.676;22.650;2022-09-09T03:54:26;11.57;92.90
72126;SHT31;59999;51.676;22.650;2022-09-09T03:56:52;11.56;92.81
72126;SHT31;59999;51.676;22.650;2022-09-09T03:59:19;11.57;92.80
72126;SHT31;59999;51.676;22.650;2022-09-09T04:01:46;11.57;92.89
72126;SHT31;59999;51.676;22.650;2022-09-09T04:04:13;11.57;92.92
72126;SHT31;59999;51.676;22.650;2022-09-09T04:06:39;11.59;92.81
72126;SHT31;59999;51.676;22.650;2022-09-09T04:09:05;11.60;92.78
72126;SHT31;59999;51.676;22.650;2022-09-09T04:11:31;11.59;92.86
72126;SHT31;59999;51.676;22.650;2022-09-09T04:13:57;11.57;92.90
72126;SHT31;59999;51.676;22.650;2022-09-09T04:16:22;11.59;92.72
72126;SHT31;59999;51.676;22.650;2022-09-09T04:18:48;11.59;92.73
72126;SHT31;59999;51.676;22.650;2022-09-09T04:21:15;11.59;92.82
72126;SHT31;59999;51.676;22.650;2022-09-09T04:23:41;11.63;92.53
72126;SHT31;59999;51.676;22.650;2022-09-09T04:26:07;11.67;92.15
72126;SHT31;59999;51.676;22.650;2022-09-09T04:28:35;11.70;91.92
72126;SHT31;59999;51.676;22.650;2022-09-09T04:31:10;11.75;91.33
72126;SHT31;59999;51.676;22.650;2022-09-09T04:33:37;11.71;91.69
72126;SHT31;59999;51.676;22.650;2022-09-09T04:36:05;11.67;91.81
72126;SHT31;59999;51.676;22.650;2022-09-09T04:38:30;11.66;91.99
72126;SHT31;59999;51.676;22.650;2022-09-09T04:40:57;11.62;92.17
72126;SHT31;59999;51.676;22.650;2022-09-09T04:43:23;11.60;92.19
72126;SHT31;59999;51.676;22.650;2022-09-09T04:45:52;11.67;91.59
72126;SHT31;59999;51.676;22.650;2022-09-09T04:48:19;11.67;91.83
72126;SHT31;59999;51.676;22.650;2022-09-09T04:50:54;11.70;91.87
72126;SHT31;59999;51.676;22.650;2022-09-09T04:53:21;11.71;91.68
72126;SHT31;59999;51.676;22.650;2022-09-09T04:55:47;11.71;91.82
72126;SHT31;59999;51.676;22.650;2022-09-09T04:58:14;11.71;91.88
72126;SHT31;59999;51.676;22.650;2022-09-09T05:00:40;11.74;91.77
72126;SHT31;59999;51.676;22.650;2022-09-09T05:03:08;11.78;91.83
72126;SHT31;59999;51.676;22.650;2022-09-09T05:05:34;11.78;91.68
72126;SHT31;59999;51.676;22.650;2022-09-09T05:08:05;11.83;91.48
72126;SHT31;59999;51.676;22.650;2022-09-09T05:10:32;11.87;91.37
72126;SHT31;59999;51.676;22.650;2022-09-09T05:12:59;11.84;91.39
72126;SHT31;59999;51.676;22.650;2022-09-09T05:15:25;11.87;91.24
72126;SHT31;59999;51.676;22.650;2022-09-09T05:17:51;11.88;91.39
72126;SHT31;59999;51.676;22.650;2022-09-09T05:20:20;11.88;91.51
72126;SHT31;59999;51.676;22.650;2022-09-09T05:22:47;11.88;91.57
72126;SHT31;59999;51.676;22.650;2022-09-09T05:25:12;11.91;91.69
72126;SHT31;59999;51.676;22.650;2022-09-09T05:27:39;11.90;91.83
72126;SHT31;59999;51.676;22.650;2022-09-09T05:30:05;11.87;91.73
72126;SHT31;59999;51.676;22.650;2022-09-09T05:32:31;11.91;91.85
72126;SHT31;59999;51.676;22.650;2022-09-09T05:35:00;11.93;91.29
72126;SHT31;59999;51.676;22.650;2022-09-09T05:37:27;11.97;91.40
72126;SHT31;59999;51.676;22.650;2022-09-09T05:39:53;11.95;91.18
72126;SHT31;59999;51.676;22.650;2022-09-09T05:42:19;11.97;91.37
72126;SHT31;59999;51.676;22.650;2022-09-09T05:44:45;11.97;91.36
72126;SHT31;59999;51.676;22.650;2022-09-09T05:47:11;11.99;91.23
72126;SHT31;59999;51.676;22.650;2022-09-09T05:49:37;12.01;91.37
72126;SHT31;59999;51.676;22.650;2022-09-09T05:52:03;12.04;91.48
72126;SHT31;59999;51.676;22.650;2022-09-09T05:54:29;12.05;91.31
72126;SHT31;59999;51.676;22.650;2022-09-09T05:56:55;12.05;91.35
72126;SHT31;59999;51.676;22.650;2022-09-09T05:59:21;12.08;91.42
72126;SHT31;59999;51.676;22.650;2022-09-09T06:01:49;12.06;91.20
72126;SHT31;59999;51.676;22.650;2022-09-09T06:04:14;12.08;91.24
72126;SHT31;59999;51.676;22.650;2022-09-09T06:06:41;12.08;91.43
72126;SHT31;59999;51.676;22.650;2022-09-09T06:09:09;12.10;91.47
72126;SHT31;59999;51.676;22.650;2022-09-09T06:11:39;12.12;91.33
72126;SHT31;59999;51.676;22.650;2022-09-09T06:14:06;12.11;91.45
72126;SHT31;59999;51.676;22.650;2022-09-09T06:16:32;12.11;91.38
72126;SHT31;59999;51.676;22.650;2022-09-09T06:18:59;12.12;91.44
72126;SHT31;59999;51.676;22.650;2022-09-09T06:21:30;12.11;91.57
72126;SHT31;59999;51.676;22.650;2022-09-09T06:23:56;12.14;91.45
72126;SHT31;59999;51.676;22.650;2022-09-09T06:26:25;12.12;91.62
72126;SHT31;59999;51.676;22.650;2022-09-09T06:28:53;12.15;91.88
72126;SHT31;59999;51.676;22.650;2022-09-09T06:31:22;12.20;91.97
72126;SHT31;59999;51.676;22.650;2022-09-09T06:33:50;12.24;91.87
72126;SHT31;59999;51.676;22.650;2022-09-09T06:36:22;12.28;91.63
72126;SHT31;59999;51.676;22.650;2022-09-09T06:38:48;12.32;91.42
72126;SHT31;59999;51.676;22.650;2022-09-09T06:41:17;12.36;91.57
72126;SHT31;59999;51.676;22.650;2022-09-09T06:43:45;12.36;91.36
72126;SHT31;59999;51.676;22.650;2022-09-09T06:46:22;12.42;90.97
72126;SHT31;59999;51.676;22.650;2022-09-09T06:48:48;12.46;90.65
72126;SHT31;59999;51.676;22.650;2022-09-09T06:51:21;12.49;90.46
72126;SHT31;59999;51.676;22.650;2022-09-09T06:53:51;12.48;90.53
72126;SHT31;59999;51.676;22.650;2022-09-09T06:56:26;12.49;90.51
72126;SHT31;59999;51.676;22.650;2022-09-09T06:58:55;12.48;90.64
72126;SHT31;59999;51.676;22.650;2022-09-09T07:01:26;12.49;90.91
72126;SHT31;59999;51.676;22.650;2022-09-09T07:03:55;12.49;91.08
72126;SHT31;59999;51.676;22.650;2022-09-09T07:06:23;12.49;91.00
72126;SHT31;59999;51.676;22.650;2022-09-09T07:08:54;12.50;90.93
72126;SHT31;59999;51.676;22.650;2022-09-09T07:11:22;12.52;91.10
72126;SHT31;59999;51.676;22.650;2022-09-09T07:13:48;12.49;90.76
72126;SHT31;59999;51.676;22.650;2022-09-09T07:16:17;12.49;90.89
72126;SHT31;59999;51.676;22.650;2022-09-09T07:18:44;12.50;91.14
72126;SHT31;59999;51.676;22.650;2022-09-09T07:21:12;12.49;91.24
72126;SHT31;59999;51.676;22.650;2022-09-09T07:23:39;12.46;91.46
72126;SHT31;59999;51.676;22.650;2022-09-09T07:26:10;12.49;91.35
72126;SHT31;59999;51.676;22.650;2022-09-09T07:28:37;12.50;91.54
72126;SHT31;59999;51.676;22.650;2022-09-09T07:31:04;12.52;91.56
72126;SHT31;59999;51.676;22.650;2022-09-09T07:33:32;12.49;91.55
72126;SHT31;59999;51.676;22.650;2022-09-09T07:36:08;12.50;91.71
72126;SHT31;59999;51.676;22.650;2022-09-09T07:38:41;12.49;91.66
72126;SHT31;59999;51.676;22.650;2022-09-09T07:41:10;12.52;91.75
72126;SHT31;59999;51.676;22.650;2022-09-09T07:43:43;12.53;91.72
72126;SHT31;59999;51.676;22.650;2022-09-09T07:46:10;12.57;91.88
72126;SHT31;59999;51.676;22.650;2022-09-09T07:48:38;12.62;91.71
72126;SHT31;59999;51.676;22.650;2022-09-09T07:51:11;12.64;91.66
72126;SHT31;59999;51.676;22.650;2022-09-09T07:53:38;12.67;91.75
72126;SHT31;59999;51.676;22.650;2022-09-09T07:56:07;12.67;91.65
72126;SHT31;59999;51.676;22.650;2022-09-09T07:58:37;12.73;91.67
72126;SHT31;59999;51.676;22.650;2022-09-09T08:01:17;12.75;91.65
72126;SHT31;59999;51.676;22.650;2022-09-09T08:03:44;12.79;91.85
72126;SHT31;59999;51.676;22.650;2022-09-09T08:06:11;12.83;91.83
72126;SHT31;59999;51.676;22.650;2022-09-09T08:08:38;12.84;91.71
72126;SHT31;59999;51.676;22.650;2022-09-09T08:11:12;12.83;91.51
72126;SHT31;59999;51.676;22.650;2022-09-09T08:13:41;12.81;91.56
72126;SHT31;59999;51.676;22.650;2022-09-09T08:16:16;12.83;91.37
72126;SHT31;59999;51.676;22.650;2022-09-09T08:18:43;12.80;91.60
72126;SHT31;59999;51.676;22.650;2022-09-09T08:21:14;12.80;91.16
72126;SHT31;59999;51.676;22.650;2022-09-09T08:23:41;12.79;91.30
72126;SHT31;59999;51.676;22.650;2022-09-09T08:26:16;12.73;91.47
72126;SHT31;59999;51.676;22.650;2022-09-09T08:28:43;12.77;91.55
72126;SHT31;59999;51.676;22.650;2022-09-09T08:31:12;12.76;91.69
72126;SHT31;59999;51.676;22.650;2022-09-09T08:33:40;12.76;91.30
72126;SHT31;59999;51.676;22.650;2022-09-09T08:36:09;12.70;91.27
72126;SHT31;59999;51.676;22.650;2022-09-09T08:38:36;12.72;91.43
72126;SHT31;59999;51.676;22.650;2022-09-09T08:44:23;12.72;91.08
72126;SHT31;59999;51.676;22.650;2022-09-09T08:47:12;12.69;91.31
72126;SHT31;59999;51.676;22.650;2022-09-09T08:49:48;12.69;91.60
72126;SHT31;59999;51.676;22.650;2022-09-09T08:52:22;12.66;91.76
72126;SHT31;59999;51.676;22.650;2022-09-09T08:54:50;12.67;91.67
72126;SHT31;59999;51.676;22.650;2022-09-09T08:57:26;12.70;91.93
72126;SHT31;59999;51.676;22.650;2022-09-09T08:59:55;12.72;91.84
72126;SHT31;59999;51.676;22.650;2022-09-09T09:02:28;12.76;91.81
72126;SHT31;59999;51.676;22.650;2022-09-09T09:10:29;12.97;90.90
72126;SHT31;59999;51.676;22.650;2022-09-09T09:12:57;13.00;90.98
72126;SHT31;59999;51.676;22.650;2022-09-09T09:15:26;13.06;90.88
72126;SHT31;59999;51.676;22.650;2022-09-09T09:17:53;13.07;90.96
72126;SHT31;59999;51.676;22.650;2022-09-09T09:20:26;13.10;90.50
72126;SHT31;59999;51.676;22.650;2022-09-09T09:22:59;13.10;90.34
72126;SHT31;59999;51.676;22.650;2022-09-09T09:25:39;13.06;90.22
72126;SHT31;59999;51.676;22.650;2022-09-09T09:28:17;13.07;90.35
72126;SHT31;59999;51.676;22.650;2022-09-09T09:30:52;13.01;90.53
72126;SHT31;59999;51.676;22.650;2022-09-09T09:35:45;13.03;90.77
72126;SHT31;59999;51.676;22.650;2022-09-09T09:38:20;13.03;91.03
72126;SHT31;59999;51.676;22.650;2022-09-09T09:40:50;13.06;90.43
72126;SHT31;59999;51.676;22.650;2022-09-09T09:43:21;13.06;90.42
72126;SHT31;59999;51.676;22.650;2022-09-09T09:45:48;13.00;90.64
72126;SHT31;59999;51.676;22.650;2022-09-09T09:48:14;12.96;90.53
72126;SHT31;59999;51.676;22.650;2022-09-09T09:50:52;12.96;90.60
72126;SHT31;59999;51.676;22.650;2022-09-09T09:53:25;12.94;90.95
72126;SHT31;59999;51.676;22.650;2022-09-09T09:58:25;12.97;90.90
72126;SHT31;59999;51.676;22.650;2022-09-09T10:00:53;13.00;90.90
72126;SHT31;59999;51.676;22.650;2022-09-09T10:03:33;13.04;90.36
72126;SHT31;59999;51.676;22.650;2022-09-09T10:06:03;13.06;90.04
72126;SHT31;59999;51.676;22.650;2022-09-09T10:08:34;13.06;90.15
72126;SHT31;59999;51.676;22.650;2022-09-09T10:14:42;13.03;90.69
72126;SHT31;59999;51.676;22.650;2022-09-09T10:22:28;13.10;90.76
72126;SHT31;59999;51.676;22.650;2022-09-09T10:25:19;13.12;91.00
72126;SHT31;59999;51.676;22.650;2022-09-09T10:30:54;13.17;90.71
72126;SHT31;59999;51.676;22.650;2022-09-09T10:33:37;13.15;90.06
72126;SHT31;59999;51.676;22.650;2022-09-09T10:36:23;13.17;90.27
72126;SHT31;59999;51.676;22.650;2022-09-09T10:39:04;13.21;90.39
72126;SHT31;59999;51.676;22.650;2022-09-09T10:42:07;13.28;90.31
72126;SHT31;59999;51.676;22.650;2022-09-09T10:50:38;13.48;90.15
72126;SHT31;59999;51.676;22.650;2022-09-09T10:53:18;13.52;89.28
72126;SHT31;59999;51.676;22.650;2022-09-09T10:55:55;13.55;89.74
72126;SHT31;59999;51.676;22.650;2022-09-09T10:58:42;13.59;89.58
72126;SHT31;59999;51.676;22.650;2022-09-09T11:01:18;13.68;89.88
72126;SHT31;59999;51.676;22.650;2022-09-09T11:03:49;13.66;89.39
72126;SHT31;59999;51.676;22.650;2022-09-09T11:06:25;13.66;89.22
72126;SHT31;59999;51.676;22.650;2022-09-09T11:08:53;13.68;89.40
72126;SHT31;59999;51.676;22.650;2022-09-09T11:11:27;13.66;89.56
72126;SHT31;59999;51.676;22.650;2022-09-09T11:14:14;13.65;88.94
72126;SHT31;59999;51.676;22.650;2022-09-09T11:16:57;13.65;89.05
72126;SHT31;59999;51.676;22.650;2022-09-09T11:19:44;13.69;89.41
72126;SHT31;59999;51.676;22.650;2022-09-09T11:30:26;13.63;89.11
72126;SHT31;59999;51.676;22.650;2022-09-09T11:38:45;13.69;89.47
72126;SHT31;59999;51.676;22.650;2022-09-09T11:41:14;13.66;89.17
72126;SHT31;59999;51.676;22.650;2022-09-09T11:43:45;13.63;89.14
72126;SHT31;59999;51.676;22.650;2022-09-09T11:46:13;13.61;89.24
72126;SHT31;59999;51.676;22.650;2022-09-09T11:48:45;13.62;88.83
72126;SHT31;59999;51.676;22.650;2022-09-09T11:53:51;13.65;89.16
72126;SHT31;59999;51.676;22.650;2022-09-09T11:56:44;13.59;89.67
72126;SHT31;59999;51.676;22.650;2022-09-09T11:59:32;13.58;89.97
72126;SHT31;59999;51.676;22.650;2022-09-09T12:02:14;13.57;89.90
72126;SHT31;59999;51.676;22.650;2022-09-09T12:04:54;13.54;90.24
72126;SHT31;59999;51.676;22.650;2022-09-09T12:07:47;13.62;88.71
72126;SHT31;59999;51.676;22.650;2022-09-09T12:12:45;13.57;89.56
72126;SHT31;59999;51.676;22.650;2022-09-09T12:17:45;13.55;89.95
72126;SHT31;59999;51.676;22.650;2022-09-09T12:20:23;13.54;89.66
72126;SHT31;59999;51.676;22.650;2022-09-09T12:31:29;13.42;90.13
72126;SHT31;59999;51.676;22.650;2022-09-09T12:34:06;13.39;90.45
72126;SHT31;59999;51.676;22.650;2022-09-09T12:36:36;13.34;90.59
72126;SHT31;59999;51.676;22.650;2022-09-09T12:39:18;13.32;90.83
72126;SHT31;59999;51.676;22.650;2022-09-09T12:41:53;13.29;91.20
72126;SHT31;59999;51.676;22.650;2022-09-09T12:44:25;13.25;91.31
72126;SHT31;59999;51.676;22.650;2022-09-09T12:46:54;13.27;91.26
72126;SHT31;59999;51.676;22.650;2022-09-09T12:49:27;13.24;91.36
72126;SHT31;59999;51.676;22.650;2022-09-09T12:51:54;13.22;91.37
72126;SHT31;59999;51.676;22.650;2022-09-09T12:54:21;13.21;91.44
72126;SHT31;59999;51.676;22.650;2022-09-09T12:56:48;13.22;91.85
72126;SHT31;59999;51.676;22.650;2022-09-09T12:59:25;13.21;91.44
72126;SHT31;59999;51.676;22.650;2022-09-09T13:01:58;13.20;91.47
72126;SHT31;59999;51.676;22.650;2022-09-09T13:04:24;13.17;91.64
72126;SHT31;59999;51.676;22.650;2022-09-09T13:06:50;13.18;91.77
72126;SHT31;59999;51.676;22.650;2022-09-09T13:09:18;13.24;91.09
72126;SHT31;59999;51.676;22.650;2022-09-09T13:11:55;13.21;91.25
72126;SHT31;59999;51.676;22.650;2022-09-09T13:14:33;13.18;91.33
72126;SHT31;59999;51.676;22.650;2022-09-09T13:17:02;13.22;91.16
72126;SHT31;59999;51.676;22.650;2022-09-09T13:19:37;13.21;91.18
72126;SHT31;59999;51.676;22.650;2022-09-09T13:22:20;13.18;91.47
72126;SHT31;59999;51.676;22.650;2022-09-09T13:24:46;13.21;91.71
72126;SHT31;59999;51.676;22.650;2022-09-09T13:27:50;13.24;91.59
72126;SHT31;59999;51.676;22.650;2022-09-09T13:30:24;13.20;91.48
72126;SHT31;59999;51.676;22.650;2022-09-09T13:36:10;13.14;92.11
72126;SHT31;59999;51.676;22.650;2022-09-09T13:38:40;13.12;92.21
72126;SHT31;59999;51.676;22.650;2022-09-09T13:41:08;13.11;92.22
72126;SHT31;59999;51.676;22.650;2022-09-09T13:43:38;13.11;92.16
72126;SHT31;59999;51.676;22.650;2022-09-09T13:46:30;13.08;92.15
72126;SHT31;59999;51.676;22.650;2022-09-09T13:48:58;13.08;92.32
72126;SHT31;59999;51.676;22.650;2022-09-09T13:51:48;13.07;92.51
72126;SHT31;59999;51.676;22.650;2022-09-09T13:54:18;13.06;92.71
72126;SHT31;59999;51.676;22.650;2022-09-09T13:56:45;13.07;92.87
72126;SHT31;59999;51.676;22.650;2022-09-09T13:59:17;13.06;92.71
72126;SHT31;59999;51.676;22.650;2022-09-09T14:01:47;13.08;92.80
72126;SHT31;59999;51.676;22.650;2022-09-09T14:04:15;13.10;92.54
72126;SHT31;59999;51.676;22.650;2022-09-09T14:06:41;13.10;92.52
72126;SHT31;59999;51.676;22.650;2022-09-09T14:09:14;13.12;92.51
72126;SHT31;59999;51.676;22.650;2022-09-09T14:11:40;13.08;92.52
72126;SHT31;59999;51.676;22.650;2022-09-09T14:14:06;13.07;92.75
72126;SHT31;59999;51.676;22.650;2022-09-09T14:16:33;13.12;92.47
72126;SHT31;59999;51.676;22.650;2022-09-09T14:18:59;13.11;92.74
72126;SHT31;59999;51.676;22.650;2022-09-09T14:21:26;13.06;92.79
72126;SHT31;59999;51.676;22.650;2022-09-09T14:23:52;13.08;92.89
72126;SHT31;59999;51.676;22.650;2022-09-09T14:26:20;13.10;92.93
72126;SHT31;59999;51.676;22.650;2022-09-09T14:28:47;13.14;92.95
72126;SHT31;59999;51.676;22.650;2022-09-09T14:31:13;13.17;92.88
72126;SHT31;59999;51.676;22.650;2022-09-09T14:33:40;13.22;92.87
72126;SHT31;59999;51.676;22.650;2022-09-09T14:36:06;13.22;93.02
72126;SHT31;59999;51.676;22.650;2022-09-09T14:38:35;13.28;92.55
72126;SHT31;59999;51.676;22.650;2022-09-09T14:41:06;13.29;92.75
72126;SHT31;59999;51.676;22.650;2022-09-09T14:43:32;13.32;92.50
72126;SHT31;59999;51.676;22.650;2022-09-09T14:46:06;13.31;92.51
72126;SHT31;59999;51.676;22.650;2022-09-09T14:48:33;13.35;92.10
72126;SHT31;59999;51.676;22.650;2022-09-09T14:51:14;13.29;92.02
72126;SHT31;59999;51.676;22.650;2022-09-09T14:53:42;13.29;91.95
72126;SHT31;59999;51.676;22.650;2022-09-09T14:56:14;13.28;92.07
72126;SHT31;59999;51.676;22.650;2022-09-09T14:58:40;13.25;92.56
72126;SHT31;59999;51.676;22.650;2022-09-09T15:01:12;13.24;92.62
72126;SHT31;59999;51.676;22.650;2022-09-09T15:03:40;13.22;92.60
72126;SHT31;59999;51.676;22.650;2022-09-09T15:06:11;13.17;92.76
72126;SHT31;59999;51.676;22.650;2022-09-09T15:08:40;13.15;92.81
72126;SHT31;59999;51.676;22.650;2022-09-09T15:11:07;13.14;92.92
72126;SHT31;59999;51.676;22.650;2022-09-09T15:13:37;13.15;92.72
72126;SHT31;59999;51.676;22.650;2022-09-09T15:16:14;13.15;92.87
72126;SHT31;59999;51.676;22.650;2022-09-09T15:18:42;13.12;92.99
72126;SHT31;59999;51.676;22.650;2022-09-09T15:21:16;13.10;93.26
72126;SHT31;59999;51.676;22.650;2022-09-09T15:23:44;13.15;92.98
72126;SHT31;59999;51.676;22.650;2022-09-09T15:26:11;13.12;93.18
72126;SHT31;59999;51.676;22.650;2022-09-09T15:28:39;13.14;93.13
72126;SHT31;59999;51.676;22.650;2022-09-09T15:31:30;13.11;93.13
72126;SHT31;59999;51.676;22.650;2022-09-09T15:33:58;13.07;93.32
72126;SHT31;59999;51.676;22.650;2022-09-09T15:36:33;13.11;93.06
72126;SHT31;59999;51.676;22.650;2022-09-09T15:38:59;13.07;93.34
72126;SHT31;59999;51.676;22.650;2022-09-09T15:41:26;13.01;93.54
72126;SHT31;59999;51.676;22.650;2022-09-09T15:43:53;13.01;93.70
72126;SHT31;59999;51.676;22.650;2022-09-09T15:46:30;12.97;93.80
72126;SHT31;59999;51.676;22.650;2022-09-09T15:51:31;12.93;93.96
72126;SHT31;59999;51.676;22.650;2022-09-09T15:53:59;12.94;93.55
72126;SHT31;59999;51.676;22.650;2022-09-09T15:56:26;12.93;93.69
72126;SHT31;59999;51.676;22.650;2022-09-09T15:58:54;12.94;93.67
72126;SHT31;59999;51.676;22.650;2022-09-09T16:01:20;12.96;93.70
72126;SHT31;59999;51.676;22.650;2022-09-09T16:03:47;12.91;93.43
72126;SHT31;59999;51.676;22.650;2022-09-09T16:06:14;12.90;93.40
72126;SHT31;59999;51.676;22.650;2022-09-09T16:08:43;12.84;93.51
72126;SHT31;59999;51.676;22.650;2022-09-09T16:11:14;12.86;93.63
72126;SHT31;59999;51.676;22.650;2022-09-09T16:13:42;12.83;93.51
72126;SHT31;59999;51.676;22.650;2022-09-09T16:16:10;12.86;93.21
72126;SHT31;59999;51.676;22.650;2022-09-09T16:18:39;12.81;93.40
72126;SHT31;59999;51.676;22.650;2022-09-09T16:21:06;12.76;93.58
72126;SHT31;59999;51.676;22.650;2022-09-09T16:23:34;12.75;93.78
72126;SHT31;59999;51.676;22.650;2022-09-09T16:26:01;12.70;94.00
72126;SHT31;59999;51.676;22.650;2022-09-09T16:28:28;12.75;94.03
72126;SHT31;59999;51.676;22.650;2022-09-09T16:30:54;12.75;93.91
72126;SHT31;59999;51.676;22.650;2022-09-09T16:33:20;12.69;93.93
72126;SHT31;59999;51.676;22.650;2022-09-09T16:35:46;12.67;94.10
72126;SHT31;59999;51.676;22.650;2022-09-09T16:38:11;12.70;94.13
72126;SHT31;59999;51.676;22.650;2022-09-09T16:40:38;12.67;93.91
72126;SHT31;59999;51.676;22.650;2022-09-09T16:43:07;12.66;93.84
72126;SHT31;59999;51.676;22.650;2022-09-09T16:45:41;12.64;93.71
72126;SHT31;59999;51.676;22.650;2022-09-09T16:48:07;12.60;93.75
72126;SHT31;59999;51.676;22.650;2022-09-09T16:50:33;12.59;93.79
72126;SHT31;59999;51.676;22.650;2022-09-09T16:52:59;12.53;93.96
72126;SHT31;59999;51.676;22.650;2022-09-09T16:55:28;12.52;94.15
72126;SHT31;59999;51.676;22.650;2022-09-09T16:57:55;12.53;94.02
72126;SHT31;59999;51.676;22.650;2022-09-09T17:00:21;12.60;93.82
72126;SHT31;59999;51.676;22.650;2022-09-09T17:02:49;12.52;93.98
72126;SHT31;59999;51.676;22.650;2022-09-09T17:05:14;12.46;94.21
72126;SHT31;59999;51.676;22.650;2022-09-09T17:07:40;12.46;94.44
72126;SHT31;59999;51.676;22.650;2022-09-09T17:10:07;12.46;94.54
72126;SHT31;59999;51.676;22.650;2022-09-09T17:12:33;12.41;94.56
72126;SHT31;59999;51.676;22.650;2022-09-09T17:15:01;12.45;94.50
72126;SHT31;59999;51.676;22.650;2022-09-09T17:17:30;12.45;94.61